DLH2XV LROP-EDDM
Flight info
| Callsign | DLH2XV |
|---|---|
| Flight time | N/A |
| Altitude | 38000 |
| Route | POLUN DCT VIKBI DCT ELDET DCT LELTI DCT ANASA DCT ENUPU DCT OBISA DCT OKSIG DCT MONID DCT RUGOG DCT KANIN DCT RASTA DCT REDBU Q112 NAPSA NAPSA4A |
| Aircraft | A320/M-SDE2E3FGIJ1LORWXYZ/HB1 |
Departure
| Time | N/A |
|---|---|
| Airport | Bucharest Henri Coandă International Airport (LROP) |
Arrival
| Time | 2026-04-30 09:36 |
|---|---|
| Airport | Munich Airport (EDDM) |
| Time | Latitude | Longitude | Altitude | Speed | Heading |
|---|---|---|---|---|---|
| 2026-04-30 08:55 | 46.27589 | 13.87375 | 38329 ft | 407 kts | 315° |
| 2026-04-30 08:56 | 46.29564 | 13.84445 | 38317 ft | 407 kts | 315° |
| 2026-04-30 08:56 | 46.33512 | 13.78570 | 38333 ft | 407 kts | 315° |
| 2026-04-30 08:57 | 46.37468 | 13.72685 | 38302 ft | 408 kts | 315° |
| 2026-04-30 08:57 | 46.41484 | 13.66847 | 38314 ft | 409 kts | 321° |
| 2026-04-30 08:58 | 46.46380 | 13.62730 | 38307 ft | 409 kts | 340° |
| 2026-04-30 08:58 | 46.51921 | 13.61072 | 38318 ft | 411 kts | 349° |
| 2026-04-30 08:59 | 46.57575 | 13.59766 | 38348 ft | 412 kts | 350° |
| 2026-04-30 08:59 | 46.63248 | 13.58447 | 38332 ft | 414 kts | 350° |
| 2026-04-30 09:00 | 46.68953 | 13.57125 | 38319 ft | 416 kts | 350° |
| 2026-04-30 09:00 | 46.74669 | 13.55805 | 38329 ft | 416 kts | 350° |
| 2026-04-30 09:01 | 46.80395 | 13.54467 | 38320 ft | 417 kts | 351° |
| 2026-04-30 09:01 | 46.86116 | 13.53132 | 38340 ft | 416 kts | 351° |
| 2026-04-30 09:02 | 46.94680 | 13.51119 | 38345 ft | 415 kts | 351° |
| 2026-04-30 09:02 | 47.00387 | 13.49783 | 38356 ft | 415 kts | 351° |
| 2026-04-30 09:03 | 47.06085 | 13.48444 | 38340 ft | 414 kts | 352° |
| 2026-04-30 09:03 | 47.11771 | 13.47104 | 38342 ft | 414 kts | 351° |
| 2026-04-30 09:04 | 47.17458 | 13.45762 | 38332 ft | 414 kts | 351° |
| 2026-04-30 09:04 | 47.23138 | 13.44416 | 38359 ft | 413 kts | 352° |
| 2026-04-30 09:05 | 47.28809 | 13.43067 | 38352 ft | 412 kts | 352° |
| 2026-04-30 09:05 | 47.34459 | 13.41725 | 38352 ft | 411 kts | 352° |
| 2026-04-30 09:06 | 47.40096 | 13.40388 | 38323 ft | 410 kts | 352° |
| 2026-04-30 09:06 | 47.45718 | 13.39040 | 38374 ft | 409 kts | 351° |
| 2026-04-30 09:07 | 47.51036 | 13.36073 | 38355 ft | 414 kts | 330° |
| 2026-04-30 09:07 | 47.55594 | 13.30803 | 38374 ft | 417 kts | 324° |
| 2026-04-30 09:08 | 47.60074 | 13.25366 | 38373 ft | 416 kts | 324° |
| 2026-04-30 09:08 | 47.62317 | 13.22649 | 38199 ft | 417 kts | 324° |
| 2026-04-30 09:08 | 47.64559 | 13.19932 | 37466 ft | 411 kts | 324° |
| 2026-04-30 09:09 | 47.66738 | 13.17273 | 36711 ft | 403 kts | 325° |
| 2026-04-30 09:09 | 47.68890 | 13.14640 | 35888 ft | 398 kts | 326° |
| 2026-04-30 09:09 | 47.71011 | 13.12041 | 35144 ft | 392 kts | 327° |
| 2026-04-30 09:09 | 47.73099 | 13.09482 | 34416 ft | 387 kts | 328° |
| 2026-04-30 09:10 | 47.75159 | 13.06955 | 33576 ft | 382 kts | 328° |
| 2026-04-30 09:10 | 47.77170 | 13.04489 | 32830 ft | 379 kts | 328° |
| 2026-04-30 09:10 | 47.79198 | 13.01998 | 32679 ft | 367 kts | 328° |
| 2026-04-30 09:10 | 47.81114 | 12.99637 | 32593 ft | 360 kts | 329° |
| 2026-04-30 09:11 | 47.84994 | 12.94882 | 32435 ft | 362 kts | 329° |
| 2026-04-30 09:11 | 47.88877 | 12.90113 | 32051 ft | 362 kts | 329° |
| 2026-04-30 09:12 | 47.90810 | 12.87725 | 31632 ft | 360 kts | 329° |
| 2026-04-30 09:12 | 47.92730 | 12.85349 | 31208 ft | 358 kts | 329° |
| 2026-04-30 09:12 | 47.94613 | 12.82916 | 30792 ft | 362 kts | 324° |
| 2026-04-30 09:12 | 47.96266 | 12.80023 | 30275 ft | 372 kts | 314° |
| 2026-04-30 09:13 | 47.97627 | 12.76716 | 29865 ft | 374 kts | 310° |
| 2026-04-30 09:13 | 47.98940 | 12.73392 | 29441 ft | 371 kts | 310° |
| 2026-04-30 09:13 | 48.00249 | 12.70091 | 29017 ft | 368 kts | 310° |
| 2026-04-30 09:13 | 48.01552 | 12.66815 | 28605 ft | 365 kts | 310° |
| 2026-04-30 09:14 | 48.02845 | 12.63565 | 28202 ft | 363 kts | 309° |
| 2026-04-30 09:14 | 48.04130 | 12.60331 | 27765 ft | 361 kts | 309° |
| 2026-04-30 09:14 | 48.05402 | 12.57115 | 27363 ft | 358 kts | 309° |
| 2026-04-30 09:14 | 48.06667 | 12.53922 | 26939 ft | 356 kts | 309° |
| 2026-04-30 09:15 | 48.07932 | 12.50753 | 26509 ft | 354 kts | 309° |
| 2026-04-30 09:15 | 48.09194 | 12.47606 | 26090 ft | 352 kts | 309° |
| 2026-04-30 09:15 | 48.10453 | 12.44469 | 25653 ft | 351 kts | 309° |
| 2026-04-30 09:15 | 48.11709 | 12.41342 | 25223 ft | 350 kts | 309° |
| 2026-04-30 09:16 | 48.12987 | 12.38246 | 24767 ft | 347 kts | 314° |
| 2026-04-30 09:16 | 48.14526 | 12.35546 | 24323 ft | 337 kts | 324° |
| 2026-04-30 09:16 | 48.16324 | 12.33378 | 23878 ft | 328 kts | 335° |
| 2026-04-30 09:16 | 48.18298 | 12.31762 | 23396 ft | 320 kts | 341° |
| 2026-04-30 09:17 | 48.20303 | 12.30328 | 22969 ft | 318 kts | 341° |
| 2026-04-30 09:17 | 48.22291 | 12.28896 | 22561 ft | 316 kts | 341° |
| 2026-04-30 09:17 | 48.24269 | 12.27469 | 22145 ft | 315 kts | 340° |
| 2026-04-30 09:17 | 48.26118 | 12.25669 | 21738 ft | 323 kts | 324° |
| 2026-04-30 09:18 | 48.27556 | 12.23022 | 21305 ft | 334 kts | 305° |
| 2026-04-30 09:18 | 48.28389 | 12.19716 | 20853 ft | 346 kts | 285° |
| 2026-04-30 09:18 | 48.28467 | 12.16072 | 20389 ft | 355 kts | 268° |
| 2026-04-30 09:18 | 48.28288 | 12.13631 | 20075 ft | 356 kts | 267° |
| 2026-04-30 09:19 | 48.27913 | 12.08679 | 19447 ft | 358 kts | 267° |
| 2026-04-30 09:19 | 48.27726 | 12.06218 | 19115 ft | 358 kts | 267° |
| 2026-04-30 09:19 | 48.27443 | 12.02497 | 18659 ft | 360 kts | 266° |
| 2026-04-30 09:19 | 48.27158 | 11.98764 | 18152 ft | 360 kts | 266° |
| 2026-04-30 09:20 | 48.26875 | 11.95035 | 17693 ft | 359 kts | 266° |
| 2026-04-30 09:20 | 48.26595 | 11.91317 | 17234 ft | 358 kts | 266° |
| 2026-04-30 09:20 | 48.26314 | 11.87610 | 16783 ft | 357 kts | 266° |
| 2026-04-30 09:20 | 48.26032 | 11.83914 | 16340 ft | 356 kts | 266° |
| 2026-04-30 09:21 | 48.25751 | 11.80232 | 15972 ft | 353 kts | 266° |
| 2026-04-30 09:21 | 48.25468 | 11.76575 | 15530 ft | 352 kts | 266° |
| 2026-04-30 09:21 | 48.25187 | 11.72946 | 15134 ft | 349 kts | 266° |
| 2026-04-30 09:21 | 48.24906 | 11.69323 | 14748 ft | 347 kts | 266° |
| 2026-04-30 09:22 | 48.24626 | 11.65729 | 14390 ft | 344 kts | 266° |
| 2026-04-30 09:22 | 48.24347 | 11.62179 | 13994 ft | 342 kts | 265° |
| 2026-04-30 09:22 | 48.24069 | 11.58648 | 13545 ft | 340 kts | 264° |
| 2026-04-30 09:22 | 48.23791 | 11.55120 | 13075 ft | 340 kts | 265° |
| 2026-04-30 09:23 | 48.23513 | 11.51627 | 12441 ft | 336 kts | 265° |
| 2026-04-30 09:23 | 48.23239 | 11.48216 | 11968 ft | 322 kts | 264° |
| 2026-04-30 09:23 | 48.22975 | 11.44945 | 11554 ft | 310 kts | 264° |
| 2026-04-30 09:23 | 48.22722 | 11.41799 | 11164 ft | 299 kts | 264° |
| 2026-04-30 09:24 | 48.22480 | 11.38758 | 10768 ft | 288 kts | 265° |
| 2026-04-30 09:24 | 48.22242 | 11.35794 | 10383 ft | 285 kts | 265° |
| 2026-04-30 09:24 | 48.22009 | 11.32885 | 9981 ft | 280 kts | 264° |
| 2026-04-30 09:24 | 48.21773 | 11.29963 | 9581 ft | 284 kts | 264° |
| 2026-04-30 09:25 | 48.21534 | 11.27041 | 9180 ft | 279 kts | 263° |
| 2026-04-30 09:25 | 48.21296 | 11.24173 | 8785 ft | 279 kts | 263° |
| 2026-04-30 09:25 | 48.21058 | 11.21289 | 8383 ft | 276 kts | 263° |
| 2026-04-30 09:25 | 48.20915 | 11.18455 | 8052 ft | 272 kts | 276° |
| 2026-04-30 09:26 | 48.21438 | 11.15778 | 7809 ft | 271 kts | 301° |
| 2026-04-30 09:26 | 48.22635 | 11.13649 | 7559 ft | 267 kts | 327° |
| 2026-04-30 09:26 | 48.24262 | 11.12413 | 7323 ft | 260 kts | 349° |
| 2026-04-30 09:26 | 48.26030 | 11.12217 | 7077 ft | 252 kts | 14° |
| 2026-04-30 09:27 | 48.27657 | 11.13011 | 6863 ft | 242 kts | 35° |
| 2026-04-30 09:27 | 48.28932 | 11.14586 | 6625 ft | 235 kts | 56° |
| 2026-04-30 09:27 | 48.29738 | 11.16684 | 6399 ft | 231 kts | 73° |
| 2026-04-30 09:27 | 48.30026 | 11.19012 | 6223 ft | 222 kts | 88° |
| 2026-04-30 09:28 | 48.29941 | 11.21248 | 6162 ft | 208 kts | 95° |
| 2026-04-30 09:28 | 48.29959 | 11.23380 | 6103 ft | 202 kts | 86° |
| 2026-04-30 09:28 | 48.30103 | 11.25474 | 6051 ft | 199 kts | 84° |
| 2026-04-30 09:28 | 48.30264 | 11.27487 | 6003 ft | 189 kts | 84° |
| 2026-04-30 09:29 | 48.30421 | 11.29397 | 5960 ft | 181 kts | 84° |
| 2026-04-30 09:29 | 48.30573 | 11.31267 | 5920 ft | 180 kts | 85° |
| 2026-04-30 09:29 | 48.30725 | 11.33136 | 5873 ft | 183 kts | 84° |
| 2026-04-30 09:29 | 48.30889 | 11.35161 | 5823 ft | 205 kts | 84° |
| 2026-04-30 09:30 | 48.31064 | 11.37304 | 5564 ft | 210 kts | 84° |
| 2026-04-30 09:30 | 48.31239 | 11.39463 | 5355 ft | 205 kts | 84° |
| 2026-04-30 09:30 | 48.31407 | 11.41543 | 5287 ft | 197 kts | 84° |
| 2026-04-30 09:30 | 48.31566 | 11.43517 | 5227 ft | 185 kts | 84° |
| 2026-04-30 09:31 | 48.31717 | 11.45392 | 5164 ft | 178 kts | 84° |
| 2026-04-30 09:31 | 48.31864 | 11.47214 | 5089 ft | 174 kts | 84° |
| 2026-04-30 09:31 | 48.32010 | 11.49046 | 4986 ft | 178 kts | 84° |
| 2026-04-30 09:31 | 48.32158 | 11.50895 | 4791 ft | 180 kts | 83° |
| 2026-04-30 09:32 | 48.32306 | 11.52748 | 4553 ft | 177 kts | 84° |
| 2026-04-30 09:32 | 48.32452 | 11.54588 | 4327 ft | 179 kts | 84° |
| 2026-04-30 09:32 | 48.32599 | 11.56436 | 4082 ft | 177 kts | 84° |
| 2026-04-30 09:32 | 48.32743 | 11.58253 | 3868 ft | 173 kts | 84° |
| 2026-04-30 09:33 | 48.32881 | 11.59996 | 3619 ft | 162 kts | 83° |
| 2026-04-30 09:33 | 48.33010 | 11.61624 | 3394 ft | 153 kts | 84° |
| 2026-04-30 09:33 | 48.33131 | 11.63161 | 3182 ft | 142 kts | 84° |
| 2026-04-30 09:33 | 48.33244 | 11.64585 | 2992 ft | 133 kts | 84° |
| 2026-04-30 09:34 | 48.33351 | 11.65951 | 2837 ft | 131 kts | 84° |
| 2026-04-30 09:34 | 48.33455 | 11.67285 | 2649 ft | 128 kts | 84° |
| 2026-04-30 09:34 | 48.33558 | 11.68613 | 2440 ft | 131 kts | 84° |
| 2026-04-30 09:34 | 48.33671 | 11.69937 | 2259 ft | 129 kts | 84° |
| 2026-04-30 09:35 | 48.33772 | 11.71266 | 2024 ft | 131 kts | 86° |
| 2026-04-30 09:35 | 48.33876 | 11.72607 | 1871 ft | 129 kts | 84° |
| 2026-04-30 09:35 | 48.33976 | 11.73967 | 1653 ft | 129 kts | 85° |
| 2026-04-30 09:35 | 48.34086 | 11.75284 | 1543 ft | 126 kts | 85° |
| 2026-04-30 09:36 | 48.34177 | 11.76505 | 1484 ft | 105 kts | 84° |
| 2026-04-30 09:36 | 48.34238 | 11.77288 | 1482 ft | 42 kts | 77° |
| 2026-04-30 09:36 | 48.34321 | 11.77521 | 1479 ft | 21 kts | 59° |
| 2026-04-30 09:36 | 48.34372 | 11.77648 | 1475 ft | 17 kts | 57° |
| 2026-04-30 09:37 | 48.34448 | 11.77804 | 1478 ft | 15 kts | 54° |
| 2026-04-30 09:37 | 48.34508 | 11.77926 | 1478 ft | 12 kts | 53° |
| 2026-04-30 09:37 | 48.34545 | 11.78000 | 1482 ft | 10 kts | 53° |
| 2026-04-30 09:37 | 48.34570 | 11.78104 | 1485 ft | 11 kts | 83° |
| 2026-04-30 09:38 | 48.34579 | 11.78224 | 1480 ft | 12 kts | 84° |
| 2026-04-30 09:38 | 48.34587 | 11.78351 | 1481 ft | 13 kts | 82° |
| 2026-04-30 09:38 | 48.34600 | 11.78484 | 1485 ft | 13 kts | 82° |
| 2026-04-30 09:38 | 48.34611 | 11.78618 | 1473 ft | 13 kts | 85° |
| 2026-04-30 09:39 | 48.34620 | 11.78753 | 1485 ft | 13 kts | 83° |
| 2026-04-30 09:39 | 48.34630 | 11.78881 | 1481 ft | 13 kts | 84° |
| 2026-04-30 09:39 | 48.34639 | 11.79014 | 1477 ft | 13 kts | 83° |
| 2026-04-30 09:39 | 48.34642 | 11.79053 | 1485 ft | 3 kts | 83° |
| 2026-04-30 09:40 | 48.34645 | 11.79086 | 1485 ft | 0 kts | 84° |
| 2026-04-30 09:40 | 48.34646 | 11.79103 | 1471 ft | 4 kts | 84° |
| 2026-04-30 09:40 | 48.34650 | 11.79166 | 1476 ft | 7 kts | 85° |
| 2026-04-30 09:40 | 48.34656 | 11.79245 | 1483 ft | 8 kts | 83° |
| 2026-04-30 09:41 | 48.34664 | 11.79325 | 1485 ft | 7 kts | 81° |
| 2026-04-30 09:41 | 48.34666 | 11.79349 | 1485 ft | 1 kts | 81° |
| 2026-04-30 09:41 | 48.34668 | 11.79362 | 1479 ft | 2 kts | 81° |
| 2026-04-30 09:41 | 48.34672 | 11.79410 | 1485 ft | 9 kts | 83° |
| 2026-04-30 09:42 | 48.34692 | 11.79526 | 1478 ft | 12 kts | 56° |
| 2026-04-30 09:42 | 48.34771 | 11.79553 | 1476 ft | 13 kts | 5° |
| 2026-04-30 09:42 | 48.34867 | 11.79558 | 1485 ft | 15 kts | 352° |
| 2026-04-30 09:42 | 48.34977 | 11.79537 | 1473 ft | 17 kts | 354° |
| 2026-04-30 09:43 | 48.35102 | 11.79517 | 1476 ft | 19 kts | 354° |
| 2026-04-30 09:43 | 48.35211 | 11.79491 | 1481 ft | 7 kts | 320° |
| 2026-04-30 09:43 | 48.35209 | 11.79442 | 1484 ft | 5 kts | 263° |
| 2026-04-30 09:43 | 48.35205 | 11.79384 | 1485 ft | 6 kts | 263° |
| 2026-04-30 09:44 | 48.35202 | 11.79348 | 1485 ft | 0 kts | 263° |